sensor_id;sensor_type;location;lat;lon;timestamp;pressure;altitude;pressure_sealevel;temperature;humidity
6144;BME280;3103;49.492;8.474;2023-06-10T00:01:22;100158.00;;;24.33;39.86
6144;BME280;3103;49.492;8.474;2023-06-10T00:03:50;100162.13;;;24.18;40.80
6144;BME280;3103;49.492;8.474;2023-06-10T00:06:19;100159.59;;;24.13;41.29
6144;BME280;3103;49.492;8.474;2023-06-10T00:08:45;100157.34;;;23.94;41.63
6144;BME280;3103;49.492;8.474;2023-06-10T00:11:13;100163.19;;;23.93;41.71
6144;BME280;3103;49.492;8.474;2023-06-10T00:13:40;100164.84;;;23.85;42.11
6144;BME280;3103;49.492;8.474;2023-06-10T00:16:07;100164.91;;;23.97;41.90
6144;BME280;3103;49.492;8.474;2023-06-10T00:18:34;100151.13;;;23.85;42.09
6144;BME280;3103;49.492;8.474;2023-06-10T00:21:03;100165.19;;;23.84;42.29
6144;BME280;3103;49.492;8.474;2023-06-10T00:23:31;100158.78;;;23.80;42.40
6144;BME280;3103;49.492;8.474;2023-06-10T00:25:58;100162.91;;;23.86;42.89
6144;BME280;3103;49.492;8.474;2023-06-10T00:28:26;100164.84;;;23.85;42.93
6144;BME280;3103;49.492;8.474;2023-06-10T00:30:55;100159.28;;;23.73;42.96
6144;BME280;3103;49.492;8.474;2023-06-10T00:33:22;100158.28;;;23.78;43.00
6144;BME280;3103;49.492;8.474;2023-06-10T00:35:49;100167.97;;;23.75;42.67
6144;BME280;3103;49.492;8.474;2023-06-10T00:38:16;100162.97;;;23.77;43.11
6144;BME280;3103;49.492;8.474;2023-06-10T00:40:42;100164.91;;;23.77;43.35
6144;BME280;3103;49.492;8.474;2023-06-10T00:43:09;100165.50;;;23.61;43.20
6144;BME280;3103;49.492;8.474;2023-06-10T00:45:36;100163.72;;;23.65;43.29
6144;BME280;3103;49.492;8.474;2023-06-10T00:48:04;100171.13;;;23.65;43.36
6144;BME280;3103;49.492;8.474;2023-06-10T00:50:31;100172.41;;;23.67;43.80
6144;BME280;3103;49.492;8.474;2023-06-10T00:52:59;100176.94;;;23.63;44.02
6144;BME280;3103;49.492;8.474;2023-06-10T00:55:26;100165.16;;;23.63;44.21
6144;BME280;3103;49.492;8.474;2023-06-10T00:57:53;100166.97;;;23.50;44.10
6144;BME280;3103;49.492;8.474;2023-06-10T01:00:20;100168.75;;;23.55;44.03
6144;BME280;3103;49.492;8.474;2023-06-10T01:02:47;100170.03;;;23.57;43.55
6144;BME280;3103;49.492;8.474;2023-06-10T01:05:16;100170.31;;;23.64;43.27
6144;BME280;3103;49.492;8.474;2023-06-10T01:10:24;100176.63;;;23.65;42.88
6144;BME280;3103;49.492;8.474;2023-06-10T01:12:58;100180.81;;;23.62;42.98
6144;BME280;3103;49.492;8.474;2023-06-10T01:15:26;100180.63;;;23.67;42.43
6144;BME280;3103;49.492;8.474;2023-06-10T01:17:57;100179.19;;;23.61;42.74
6144;BME280;3103;49.492;8.474;2023-06-10T01:20:26;100180.69;;;23.59;43.45
6144;BME280;3103;49.492;8.474;2023-06-10T01:22:57;100181.09;;;23.69;43.41
6144;BME280;3103;49.492;8.474;2023-06-10T01:25:26;100182.03;;;23.74;43.05
6144;BME280;3103;49.492;8.474;2023-06-10T01:30:37;100181.91;;;23.70;43.02
6144;BME280;3103;49.492;8.474;2023-06-10T01:33:07;100182.13;;;23.56;43.06
6144;BME280;3103;49.492;8.474;2023-06-10T01:35:36;100189.75;;;23.51;43.42
6144;BME280;3103;49.492;8.474;2023-06-10T01:38:04;100179.25;;;23.53;43.18
6144;BME280;3103;49.492;8.474;2023-06-10T01:40:32;100185.81;;;23.60;42.98
6144;BME280;3103;49.492;8.474;2023-06-10T01:43:01;100183.88;;;23.61;43.18
6144;BME280;3103;49.492;8.474;2023-06-10T01:45:28;100182.78;;;23.53;43.17
6144;BME280;3103;49.492;8.474;2023-06-10T01:47:55;100179.59;;;23.51;43.32
6144;BME280;3103;49.492;8.474;2023-06-10T01:50:22;100183.16;;;23.43;43.12
6144;BME280;3103;49.492;8.474;2023-06-10T01:52:49;100183.75;;;23.49;43.11
6144;BME280;3103;49.492;8.474;2023-06-10T01:55:16;100187.66;;;23.48;43.27
6144;BME280;3103;49.492;8.474;2023-06-10T01:57:42;100183.53;;;23.33;43.61
6144;BME280;3103;49.492;8.474;2023-06-10T02:00:10;100183.19;;;23.34;43.70
6144;BME280;3103;49.492;8.474;2023-06-10T02:02:44;100187.06;;;23.33;43.41
6144;BME280;3103;49.492;8.474;2023-06-10T02:05:11;100188.22;;;23.32;43.32
6144;BME280;3103;49.492;8.474;2023-06-10T02:07:38;100178.84;;;23.33;43.29
6144;BME280;3103;49.492;8.474;2023-06-10T02:10:05;100180.06;;;23.24;43.32
6144;BME280;3103;49.492;8.474;2023-06-10T02:12:33;100176.66;;;23.27;43.29
6144;BME280;3103;49.492;8.474;2023-06-10T02:15:00;100180.47;;;23.34;43.18
6144;BME280;3103;49.492;8.474;2023-06-10T02:17:31;100183.38;;;23.38;42.72
6144;BME280;3103;49.492;8.474;2023-06-10T02:20:19;100185.19;;;23.25;43.13
6144;BME280;3103;49.492;8.474;2023-06-10T02:22:46;100181.00;;;23.28;42.98
6144;BME280;3103;49.492;8.474;2023-06-10T02:25:13;100185.22;;;23.17;43.17
6144;BME280;3103;49.492;8.474;2023-06-10T02:27:39;100190.03;;;23.20;43.17
6144;BME280;3103;49.492;8.474;2023-06-10T02:30:07;100192.84;;;23.11;43.09
6144;BME280;3103;49.492;8.474;2023-06-10T02:32:36;100185.31;;;22.99;43.48
6144;BME280;3103;49.492;8.474;2023-06-10T02:35:03;100193.34;;;23.04;43.47
6144;BME280;3103;49.492;8.474;2023-06-10T02:37:31;100194.94;;;23.05;43.52
6144;BME280;3103;49.492;8.474;2023-06-10T02:39:58;100199.94;;;23.12;43.39
6144;BME280;3103;49.492;8.474;2023-06-10T02:42:26;100198.00;;;23.13;43.70
6144;BME280;3103;49.492;8.474;2023-06-10T02:44:53;100207.81;;;23.14;44.03
6144;BME280;3103;49.492;8.474;2023-06-10T02:47:30;100205.75;;;23.10;44.24
6144;BME280;3103;49.492;8.474;2023-06-10T02:49:57;100203.94;;;23.15;44.31
6144;BME280;3103;49.492;8.474;2023-06-10T02:52:24;100204.22;;;22.84;45.43
6144;BME280;3103;49.492;8.474;2023-06-10T02:54:51;100203.03;;;22.93;44.99
6144;BME280;3103;49.492;8.474;2023-06-10T02:57:18;100203.03;;;22.93;44.77
6144;BME280;3103;49.492;8.474;2023-06-10T02:59:45;100205.31;;;22.91;45.00
6144;BME280;3103;49.492;8.474;2023-06-10T03:02:13;100206.16;;;22.83;45.54
6144;BME280;3103;49.492;8.474;2023-06-10T03:04:47;100208.25;;;22.69;45.93
6144;BME280;3103;49.492;8.474;2023-06-10T03:07:16;100204.56;;;22.56;46.48
6144;BME280;3103;49.492;8.474;2023-06-10T03:09:45;100201.66;;;22.61;46.64
6144;BME280;3103;49.492;8.474;2023-06-10T03:12:13;100211.94;;;22.64;46.73
6144;BME280;3103;49.492;8.474;2023-06-10T03:14:44;100209.56;;;22.54;47.37
6144;BME280;3103;49.492;8.474;2023-06-10T03:17:12;100207.78;;;22.58;47.48
6144;BME280;3103;49.492;8.474;2023-06-10T03:19:41;100213.41;;;22.62;47.55
6144;BME280;3103;49.492;8.474;2023-06-10T03:22:10;100210.66;;;22.62;47.81
6144;BME280;3103;49.492;8.474;2023-06-10T03:24:54;100211.81;;;22.52;47.93
6144;BME280;3103;49.492;8.474;2023-06-10T03:27:23;100216.63;;;22.72;47.83
6144;BME280;3103;49.492;8.474;2023-06-10T03:29:54;100217.41;;;22.73;47.65
6144;BME280;3103;49.492;8.474;2023-06-10T03:32:21;100217.13;;;22.57;48.21
6144;BME280;3103;49.492;8.474;2023-06-10T03:34:48;100210.19;;;22.60;48.15
6144;BME280;3103;49.492;8.474;2023-06-10T03:37:15;100218.25;;;22.47;48.59
6144;BME280;3103;49.492;8.474;2023-06-10T03:39:45;100221.94;;;22.60;48.12
6144;BME280;3103;49.492;8.474;2023-06-10T03:42:12;100221.66;;;22.53;48.01
6144;BME280;3103;49.492;8.474;2023-06-10T03:44:39;100221.31;;;22.46;48.20
6144;BME280;3103;49.492;8.474;2023-06-10T03:47:06;100223.91;;;22.34;48.47
6144;BME280;3103;49.492;8.474;2023-06-10T03:49:34;100221.34;;;22.11;49.09
6144;BME280;3103;49.492;8.474;2023-06-10T03:52:03;100226.81;;;22.11;49.12
6144;BME280;3103;49.492;8.474;2023-06-10T03:54:30;100219.91;;;22.31;48.72
6144;BME280;3103;49.492;8.474;2023-06-10T03:56:58;100224.41;;;22.18;49.30
6144;BME280;3103;49.492;8.474;2023-06-10T03:59:25;100226.31;;;22.35;49.18
6144;BME280;3103;49.492;8.474;2023-06-10T04:01:51;100226.50;;;22.21;49.54
6144;BME280;3103;49.492;8.474;2023-06-10T04:04:18;100225.22;;;22.10;49.71
6144;BME280;3103;49.492;8.474;2023-06-10T04:06:46;100213.91;;;22.03;50.08
6144;BME280;3103;49.492;8.474;2023-06-10T04:09:14;100220.69;;;22.06;50.51
6144;BME280;3103;49.492;8.474;2023-06-10T04:11:40;100226.97;;;22.15;50.04
6144;BME280;3103;49.492;8.474;2023-06-10T04:14:08;100225.63;;;21.95;50.93
6144;BME280;3103;49.492;8.474;2023-06-10T04:16:35;100228.72;;;22.02;50.60
6144;BME280;3103;49.492;8.474;2023-06-10T04:19:03;100229.50;;;22.03;50.52
6144;BME280;3103;49.492;8.474;2023-06-10T04:21:30;100231.50;;;22.11;50.49
6144;BME280;3103;49.492;8.474;2023-06-10T04:23:57;100229.50;;;22.03;50.99
6144;BME280;3103;49.492;8.474;2023-06-10T04:26:24;100242.59;;;22.14;50.78
6144;BME280;3103;49.492;8.474;2023-06-10T04:28:53;100241.59;;;22.02;51.04
6144;BME280;3103;49.492;8.474;2023-06-10T04:31:20;100246.59;;;22.08;50.82
6144;BME280;3103;49.492;8.474;2023-06-10T04:33:47;100252.53;;;22.02;51.29
6144;BME280;3103;49.492;8.474;2023-06-10T04:36:14;100244.03;;;22.12;50.86
6144;BME280;3103;49.492;8.474;2023-06-10T04:38:41;100251.44;;;22.11;50.92
6144;BME280;3103;49.492;8.474;2023-06-10T04:41:09;100240.94;;;21.96;51.93
6144;BME280;3103;49.492;8.474;2023-06-10T04:43:36;100244.84;;;22.21;51.34
6144;BME280;3103;49.492;8.474;2023-06-10T04:46:04;100255.00;;;22.29;51.50
6144;BME280;3103;49.492;8.474;2023-06-10T04:48:35;100245.66;;;22.13;51.64
6144;BME280;3103;49.492;8.474;2023-06-10T04:51:03;100254.19;;;22.46;50.90
6144;BME280;3103;49.492;8.474;2023-06-10T04:53:30;100253.38;;;22.37;51.21
6144;BME280;3103;49.492;8.474;2023-06-10T04:55:57;100253.53;;;22.49;50.92
6144;BME280;3103;49.492;8.474;2023-06-10T04:58:24;100244.34;;;22.19;51.87
6144;BME280;3103;49.492;8.474;2023-06-10T05:00:51;100251.44;;;22.55;50.80
6144;BME280;3103;49.492;8.474;2023-06-10T05:03:18;100257.19;;;22.79;49.92
6144;BME280;3103;49.492;8.474;2023-06-10T05:05:45;100252.53;;;22.71;50.20
6144;BME280;3103;49.492;8.474;2023-06-10T05:08:11;100249.66;;;22.85;49.95
6144;BME280;3103;49.492;8.474;2023-06-10T05:10:38;100255.41;;;22.92;50.15
6144;BME280;3103;49.492;8.474;2023-06-10T05:13:05;100256.69;;;23.03;49.69
6144;BME280;3103;49.492;8.474;2023-06-10T05:15:32;100262.53;;;22.84;50.00
6144;BME280;3103;49.492;8.474;2023-06-10T05:17:59;100271.50;;;23.10;49.38
6144;BME280;3103;49.492;8.474;2023-06-10T05:20:26;100262.47;;;23.10;49.21
6144;BME280;3103;49.492;8.474;2023-06-10T05:22:55;100257.81;;;23.10;48.93
6144;BME280;3103;49.492;8.474;2023-06-10T05:25:21;100265.47;;;23.26;48.40
6144;BME280;3103;49.492;8.474;2023-06-10T05:27:48;100267.56;;;23.29;48.29
6144;BME280;3103;49.492;8.474;2023-06-10T05:30:15;100273.44;;;23.48;48.01
6144;BME280;3103;49.492;8.474;2023-06-10T05:32:44;100275.34;;;23.56;47.79
6144;BME280;3103;49.492;8.474;2023-06-10T05:35:11;100267.78;;;23.53;47.73
6144;BME280;3103;49.492;8.474;2023-06-10T05:37:38;100256.66;;;23.58;47.17
6144;BME280;3103;49.492;8.474;2023-06-10T05:40:05;100272.06;;;23.72;47.51
6144;BME280;3103;49.492;8.474;2023-06-10T05:42:32;100273.34;;;23.74;47.11
6144;BME280;3103;49.492;8.474;2023-06-10T05:44:59;100273.00;;;23.76;46.66
6144;BME280;3103;49.492;8.474;2023-06-10T05:47:26;100278.38;;;23.72;46.75
6144;BME280;3103;49.492;8.474;2023-06-10T05:49:53;100278.06;;;23.94;46.53
6144;BME280;3103;49.492;8.474;2023-06-10T05:52:20;100283.34;;;23.99;46.49
6144;BME280;3103;49.492;8.474;2023-06-10T05:54:47;100286.06;;;24.29;45.82
6144;BME280;3103;49.492;8.474;2023-06-10T05:57:13;100291.72;;;24.03;46.60
6144;BME280;3103;49.492;8.474;2023-06-10T05:59:40;100285.56;;;24.06;46.52
6144;BME280;3103;49.492;8.474;2023-06-10T06:02:07;100283.78;;;24.10;46.55
6144;BME280;3103;49.492;8.474;2023-06-10T06:04:34;100288.91;;;24.41;45.69
6144;BME280;3103;49.492;8.474;2023-06-10T06:07:01;100287.53;;;24.47;45.78
6144;BME280;3103;49.492;8.474;2023-06-10T06:09:28;100290.50;;;24.42;45.90
6144;BME280;3103;49.492;8.474;2023-06-10T06:11:54;100295.09;;;24.71;45.13
6144;BME280;3103;49.492;8.474;2023-06-10T06:14:21;100286.84;;;24.71;45.04
6144;BME280;3103;49.492;8.474;2023-06-10T06:16:48;100293.75;;;24.77;44.75
6144;BME280;3103;49.492;8.474;2023-06-10T06:19:14;100290.34;;;24.80;44.50
6144;BME280;3103;49.492;8.474;2023-06-10T06:21:42;100292.19;;;24.88;44.55
6144;BME280;3103;49.492;8.474;2023-06-10T06:24:09;100296.19;;;24.91;44.28
6144;BME280;3103;49.492;8.474;2023-06-10T06:26:36;100286.88;;;25.04;44.34
6144;BME280;3103;49.492;8.474;2023-06-10T06:29:03;100287.47;;;25.10;44.10
6144;BME280;3103;49.492;8.474;2023-06-10T06:31:30;100289.78;;;25.32;43.06
6144;BME280;3103;49.492;8.474;2023-06-10T06:33:57;100285.44;;;25.43;42.74
6144;BME280;3103;49.492;8.474;2023-06-10T06:36:24;100287.06;;;25.57;42.28
6144;BME280;3103;49.492;8.474;2023-06-10T06:38:50;100288.66;;;25.58;42.06
6144;BME280;3103;49.492;8.474;2023-06-10T06:41:19;100289.09;;;25.48;42.27
6144;BME280;3103;49.492;8.474;2023-06-10T06:43:46;100294.63;;;25.35;42.19
6144;BME280;3103;49.492;8.474;2023-06-10T06:46:23;100291.53;;;25.49;41.39
6144;BME280;3103;49.492;8.474;2023-06-10T06:48:50;100293.38;;;25.57;41.07
6144;BME280;3103;49.492;8.474;2023-06-10T06:51:17;100291.53;;;25.61;40.90
6144;BME280;3103;49.492;8.474;2023-06-10T06:53:44;100294.91;;;25.79;40.49
6144;BME280;3103;49.492;8.474;2023-06-10T06:56:12;100298.78;;;25.90;39.92
6144;BME280;3103;49.492;8.474;2023-06-10T06:58:39;100304.28;;;25.90;39.26
6144;BME280;3103;49.492;8.474;2023-06-10T07:01:06;100294.03;;;26.15;38.60
6144;BME280;3103;49.492;8.474;2023-06-10T07:03:32;100306.97;;;26.27;38.17
6144;BME280;3103;49.492;8.474;2023-06-10T07:05:59;100296.75;;;26.27;38.60
6144;BME280;3103;49.492;8.474;2023-06-10T07:08:26;100293.56;;;26.38;38.15
6144;BME280;3103;49.492;8.474;2023-06-10T07:10:53;100291.34;;;26.31;37.94
6144;BME280;3103;49.492;8.474;2023-06-10T07:13:20;100292.50;;;26.30;38.56
6144;BME280;3103;49.492;8.474;2023-06-10T07:15:47;100292.13;;;26.56;37.58
6144;BME280;3103;49.492;8.474;2023-06-10T07:18:15;100295.63;;;26.69;37.08
6144;BME280;3103;49.492;8.474;2023-06-10T07:20:43;100300.28;;;26.80;36.13
6144;BME280;3103;49.492;8.474;2023-06-10T07:23:10;100306.16;;;27.07;35.87
6144;BME280;3103;49.492;8.474;2023-06-10T07:25:37;100301.88;;;27.09;36.18
6144;BME280;3103;49.492;8.474;2023-06-10T07:28:04;100305.78;;;27.08;35.81
6144;BME280;3103;49.492;8.474;2023-06-10T07:30:31;100300.81;;;26.86;36.38
6144;BME280;3103;49.492;8.474;2023-06-10T07:32:58;100305.78;;;27.08;35.72
6144;BME280;3103;49.492;8.474;2023-06-10T07:35:25;100306.50;;;27.05;35.15
6144;BME280;3103;49.492;8.474;2023-06-10T07:37:52;100301.44;;;27.07;34.94
6144;BME280;3103;49.492;8.474;2023-06-10T07:40:19;100301.03;;;26.93;35.54
6144;BME280;3103;49.492;8.474;2023-06-10T07:42:46;100292.19;;;27.15;34.90
6144;BME280;3103;49.492;8.474;2023-06-10T07:45:12;100292.81;;;27.09;35.15
6144;BME280;3103;49.492;8.474;2023-06-10T07:47:39;100297.00;;;27.18;35.09
6144;BME280;3103;49.492;8.474;2023-06-10T07:50:06;100299.22;;;27.13;34.96
6144;BME280;3103;49.492;8.474;2023-06-10T07:52:33;100291.97;;;26.92;35.32
6144;BME280;3103;49.492;8.474;2023-06-10T07:55:00;100286.78;;;27.03;35.35
6144;BME280;3103;49.492;8.474;2023-06-10T07:57:27;100293.19;;;27.23;35.18
6144;BME280;3103;49.492;8.474;2023-06-10T07:59:54;100288.19;;;27.13;34.91
6144;BME280;3103;49.492;8.474;2023-06-10T08:02:21;100286.78;;;27.19;34.74
6144;BME280;3103;49.492;8.474;2023-06-10T08:04:51;100287.66;;;27.39;35.46
6144;BME280;3103;49.492;8.474;2023-06-10T08:07:18;100286.94;;;27.42;34.91
6144;BME280;3103;49.492;8.474;2023-06-10T08:09:45;100283.66;;;27.52;34.18
6144;BME280;3103;49.492;8.474;2023-06-10T08:12:12;100286.84;;;27.54;34.55
6144;BME280;3103;49.492;8.474;2023-06-10T08:14:41;100287.16;;;27.65;34.57
6144;BME280;3103;49.492;8.474;2023-06-10T08:17:08;100292.81;;;27.72;34.16
6144;BME280;3103;49.492;8.474;2023-06-10T08:19:35;100292.94;;;27.75;34.46
6144;BME280;3103;49.492;8.474;2023-06-10T08:22:02;100282.59;;;27.72;34.46
6144;BME280;3103;49.492;8.474;2023-06-10T08:24:28;100282.13;;;27.86;33.88
6144;BME280;3103;49.492;8.474;2023-06-10T08:26:55;100287.16;;;28.00;33.98
6144;BME280;3103;49.492;8.474;2023-06-10T08:29:23;100282.28;;;27.93;34.23
6144;BME280;3103;49.492;8.474;2023-06-10T08:31:50;100283.41;;;28.08;33.66
6144;BME280;3103;49.492;8.474;2023-06-10T08:34:17;100289.75;;;28.08;32.68
6144;BME280;3103;49.492;8.474;2023-06-10T08:36:44;100283.72;;;28.03;32.87
6144;BME280;3103;49.492;8.474;2023-06-10T08:39:12;100281.50;;;27.93;33.34
6144;BME280;3103;49.492;8.474;2023-06-10T08:41:42;100284.41;;;28.00;33.60
6144;BME280;3103;49.492;8.474;2023-06-10T08:44:49;100274.13;;;28.16;33.55
6144;BME280;3103;49.492;8.474;2023-06-10T08:47:16;100279.50;;;28.09;33.16
6144;BME280;3103;49.492;8.474;2023-06-10T08:49:45;100276.78;;;27.93;33.40
6144;BME280;3103;49.492;8.474;2023-06-10T08:52:17;100279.97;;;27.95;33.46
6144;BME280;3103;49.492;8.474;2023-06-10T08:55:00;100280.09;;;27.83;34.60
6144;BME280;3103;49.492;8.474;2023-06-10T08:57:30;100268.50;;;27.93;35.49
6144;BME280;3103;49.492;8.474;2023-06-10T08:59:57;100271.50;;;28.23;35.42
6144;BME280;3103;49.492;8.474;2023-06-10T09:02:24;100265.56;;;28.21;35.63
6144;BME280;3103;49.492;8.474;2023-06-10T09:04:51;100261.47;;;28.15;35.84
6144;BME280;3103;49.492;8.474;2023-06-10T09:07:19;100264.13;;;28.27;35.67
6144;BME280;3103;49.492;8.474;2023-06-10T09:09:46;100263.56;;;28.37;35.73
6144;BME280;3103;49.492;8.474;2023-06-10T09:12:13;100261.59;;;28.38;35.59
6144;BME280;3103;49.492;8.474;2023-06-10T09:14:42;100265.22;;;28.42;35.66
6144;BME280;3103;49.492;8.474;2023-06-10T09:17:09;100266.59;;;28.52;35.66
6144;BME280;3103;49.492;8.474;2023-06-10T09:19:38;100269.94;;;28.42;35.95
6144;BME280;3103;49.492;8.474;2023-06-10T09:22:06;100265.06;;;28.16;36.38
6144;BME280;3103;49.492;8.474;2023-06-10T09:24:33;100264.41;;;28.42;36.34
6144;BME280;3103;49.492;8.474;2023-06-10T09:27:08;100262.81;;;28.41;36.42
6144;BME280;3103;49.492;8.474;2023-06-10T09:29:51;100263.84;;;28.32;36.29
6144;BME280;3103;49.492;8.474;2023-06-10T09:32:19;100257.63;;;28.20;36.48
6144;BME280;3103;49.492;8.474;2023-06-10T09:34:46;100256.44;;;28.36;35.98
6144;BME280;3103;49.492;8.474;2023-06-10T09:37:20;100262.13;;;28.44;35.88
6144;BME280;3103;49.492;8.474;2023-06-10T09:40:07;100252.88;;;28.36;36.60
6144;BME280;3103;49.492;8.474;2023-06-10T09:42:37;100252.03;;;28.16;36.44
6144;BME280;3103;49.492;8.474;2023-06-10T09:45:06;100244.75;;;28.08;36.39
6144;BME280;3103;49.492;8.474;2023-06-10T09:47:33;100247.63;;;27.96;37.79
6144;BME280;3103;49.492;8.474;2023-06-10T09:50:00;100247.88;;;28.26;36.90
6144;BME280;3103;49.492;8.474;2023-06-10T09:52:31;100247.88;;;28.06;36.71
6144;BME280;3103;49.492;8.474;2023-06-10T09:55:01;100240.69;;;28.02;37.11
6144;BME280;3103;49.492;8.474;2023-06-10T09:57:31;100237.56;;;28.03;37.26
6144;BME280;3103;49.492;8.474;2023-06-10T10:00:07;100241.75;;;28.32;35.48
6144;BME280;3103;49.492;8.474;2023-06-10T10:02:51;100242.41;;;28.45;36.04
6144;BME280;3103;49.492;8.474;2023-06-10T10:05:21;100236.94;;;28.49;35.77
6144;BME280;3103;49.492;8.474;2023-06-10T10:07:49;100238.38;;;28.23;36.54
6144;BME280;3103;49.492;8.474;2023-06-10T10:10:18;100230.41;;;28.37;36.33
6144;BME280;3103;49.492;8.474;2023-06-10T10:12:46;100224.22;;;28.44;36.50
6144;BME280;3103;49.492;8.474;2023-06-10T10:15:16;100221.56;;;28.13;36.54
6144;BME280;3103;49.492;8.474;2023-06-10T10:18:00;100226.22;;;27.89;37.39
6144;BME280;3103;49.492;8.474;2023-06-10T10:20:33;100217.75;;;28.17;36.68
6144;BME280;3103;49.492;8.474;2023-06-10T10:23:03;100216.91;;;28.32;35.86
6144;BME280;3103;49.492;8.474;2023-06-10T10:25:40;100228.22;;;28.47;35.76
6144;BME280;3103;49.492;8.474;2023-06-10T10:28:11;100222.53;;;28.59;35.87
6144;BME280;3103;49.492;8.474;2023-06-10T10:30:44;100222.44;;;28.75;34.60
6144;BME280;3103;49.492;8.474;2023-06-10T10:34:13;100223.09;;;28.87;34.66
6144;BME280;3103;49.492;8.474;2023-06-10T10:36:08;100217.91;;;28.86;31.56
6144;BME280;3103;49.492;8.474;2023-06-10T10:38:35;100227.00;;;28.86;31.24
6144;BME280;3103;49.492;8.474;2023-06-10T10:41:04;100221.19;;;28.91;29.26
6144;BME280;3103;49.492;8.474;2023-06-10T10:43:32;100217.91;;;28.86;28.88
6144;BME280;3103;49.492;8.474;2023-06-10T10:46:00;100215.59;;;28.88;28.75
6144;BME280;3103;49.492;8.474;2023-06-10T10:48:36;100211.75;;;28.73;28.51
6144;BME280;3103;49.492;8.474;2023-06-10T10:51:04;100211.25;;;28.67;29.45
6144;BME280;3103;49.492;8.474;2023-06-10T10:53:30;100206.75;;;28.59;29.90
6144;BME280;3103;49.492;8.474;2023-06-10T10:56:08;100210.59;;;28.74;29.39
6144;BME280;3103;49.492;8.474;2023-06-10T10:58:40;100204.16;;;28.70;29.19
6144;BME280;3103;49.492;8.474;2023-06-10T11:01:14;100214.19;;;28.78;29.08
6144;BME280;3103;49.492;8.474;2023-06-10T11:03:45;100210.94;;;28.73;28.55
6144;BME280;3103;49.492;8.474;2023-06-10T11:06:15;100204.31;;;28.77;28.76
6144;BME280;3103;49.492;8.474;2023-06-10T11:11:22;100199.72;;;29.08;28.64
6144;BME280;3103;49.492;8.474;2023-06-10T11:14:06;100202.31;;;28.97;28.59
6144;BME280;3103;49.492;8.474;2023-06-10T11:16:42;100198.69;;;28.93;29.30
6144;BME280;3103;49.492;8.474;2023-06-10T11:19:10;100198.56;;;28.86;29.31
6144;BME280;3103;49.492;8.474;2023-06-10T11:21:58;100188.81;;;28.92;29.25
6144;BME280;3103;49.492;8.474;2023-06-10T11:24:26;100193.53;;;28.91;28.86
6144;BME280;3103;49.492;8.474;2023-06-10T11:26:53;100187.41;;;28.82;29.36
6144;BME280;3103;49.492;8.474;2023-06-10T11:29:20;100189.19;;;28.71;29.54
6144;BME280;3103;49.492;8.474;2023-06-10T11:31:51;100194.22;;;28.65;29.39
6144;BME280;3103;49.492;8.474;2023-06-10T11:34:22;100192.56;;;28.61;29.55
6144;BME280;3103;49.492;8.474;2023-06-10T11:36:52;100183.53;;;28.64;29.78
6144;BME280;3103;49.492;8.474;2023-06-10T11:39:20;100181.16;;;28.62;29.57
6144;BME280;3103;49.492;8.474;2023-06-10T11:41:47;100185.88;;;28.43;30.01
6144;BME280;3103;49.492;8.474;2023-06-10T11:44:15;100183.31;;;28.30;30.00
6144;BME280;3103;49.492;8.474;2023-06-10T11:46:47;100185.09;;;28.23;30.32
6144;BME280;3103;49.492;8.474;2023-06-10T11:49:15;100188.91;;;28.34;30.98
6144;BME280;3103;49.492;8.474;2023-06-10T11:51:42;100176.47;;;28.44;31.82
6144;BME280;3103;49.492;8.474;2023-06-10T11:54:16;100177.19;;;28.41;30.99
6144;BME280;3103;49.492;8.474;2023-06-10T11:56:43;100185.09;;;28.42;31.43
6144;BME280;3103;49.492;8.474;2023-06-10T11:59:10;100177.59;;;28.23;32.05
6144;BME280;3103;49.492;8.474;2023-06-10T12:01:41;100178.03;;;28.25;31.84
6144;BME280;3103;49.492;8.474;2023-06-10T12:04:14;100180.72;;;28.22;31.95
6144;BME280;3103;49.492;8.474;2023-06-10T12:06:48;100176.06;;;28.26;31.39
6144;BME280;3103;49.492;8.474;2023-06-10T12:09:24;100176.00;;;28.42;32.77
6144;BME280;3103;49.492;8.474;2023-06-10T12:20:07;100182.22;;;28.35;31.33
6144;BME280;3103;49.492;8.474;2023-06-10T12:22:42;100172.38;;;28.37;32.33
6144;BME280;3103;49.492;8.474;2023-06-10T12:25:11;100177.22;;;28.25;31.57
6144;BME280;3103;49.492;8.474;2023-06-10T12:27:41;100163.38;;;28.21;31.16
6144;BME280;3103;49.492;8.474;2023-06-10T12:30:19;100168.09;;;28.21;32.16
6144;BME280;3103;49.492;8.474;2023-06-10T12:32:47;100170.31;;;28.31;30.78
6144;BME280;3103;49.492;8.474;2023-06-10T12:35:17;100175.03;;;28.30;31.07
6144;BME280;3103;49.492;8.474;2023-06-10T12:38:01;100167.72;;;28.42;31.98
6144;BME280;3103;49.492;8.474;2023-06-10T12:40:32;100174.69;;;28.55;31.91
6144;BME280;3103;49.492;8.474;2023-06-10T12:42:59;100177.28;;;28.67;31.69
6144;BME280;3103;49.492;8.474;2023-06-10T12:45:34;100169.91;;;28.75;31.23
6144;BME280;3103;49.492;8.474;2023-06-10T12:50:35;100172.00;;;28.81;30.06
6144;BME280;3103;49.492;8.474;2023-06-10T12:53:03;100170.66;;;28.94;30.53
6144;BME280;3103;49.492;8.474;2023-06-10T12:55:30;100166.00;;;28.98;30.33
6144;BME280;3103;49.492;8.474;2023-06-10T12:57:56;100169.22;;;29.01;30.27
6144;BME280;3103;49.492;8.474;2023-06-10T13:00:24;100158.88;;;28.97;30.34
6144;BME280;3103;49.492;8.474;2023-06-10T13:02:57;100168.34;;;28.96;30.15
6144;BME280;3103;49.492;8.474;2023-06-10T13:05:23;100159.28;;;29.00;29.83
6144;BME280;3103;49.492;8.474;2023-06-10T13:07:50;100165.16;;;28.94;30.57
6144;BME280;3103;49.492;8.474;2023-06-10T13:10:17;100155.81;;;29.03;30.08
6144;BME280;3103;49.492;8.474;2023-06-10T13:12:47;100156.97;;;29.02;29.56
6144;BME280;3103;49.492;8.474;2023-06-10T13:15:15;100164.81;;;29.00;29.25
6144;BME280;3103;49.492;8.474;2023-06-10T13:17:45;100151.53;;;29.09;29.34
6144;BME280;3103;49.492;8.474;2023-06-10T13:20:17;100153.50;;;29.08;30.43
6144;BME280;3103;49.492;8.474;2023-06-10T13:22:45;100153.41;;;29.27;28.96
6144;BME280;3103;49.492;8.474;2023-06-10T13:25:12;100151.13;;;29.33;29.52
6144;BME280;3103;49.492;8.474;2023-06-10T13:27:39;100154.44;;;29.16;30.09
6144;BME280;3103;49.492;8.474;2023-06-10T13:30:08;100159.66;;;28.98;30.20
6144;BME280;3103;49.492;8.474;2023-06-10T13:32:36;100160.66;;;28.86;30.05
6144;BME280;3103;49.492;8.474;2023-06-10T13:35:03;100154.78;;;28.68;30.41
6144;BME280;3103;49.492;8.474;2023-06-10T13:37:31;100155.75;;;28.57;30.77